Time;durP1;ratioP1;P1;durP2;ratioP2;P2;SDS_P1;SDS_P2;PMS_P1;PMS_P2;Temp;Humidity;BMP_temperature;BMP_pressure;BME280_temperature;BME280_humidity;BME280_pressure;Samples;Min_cycle;Max_cycle;Signal;HPM_P1;HPM_P2
2021/07/18 00:01:10;;;;;;;26.60;14.47;;;24.40;52.80;;;;;;4995304;28;20549;-85
2021/07/18 00:03:37;;;;;;;28.07;13.97;;;24.30;52.90;;;;;;4994574;28;20465;-85
2021/07/18 00:06:04;;;;;;;20.73;13.57;;;24.10;53.50;;;;;;4995236;28;20463;-85
2021/07/18 00:08:31;;;;;;;26.00;14.90;;;24.00;53.80;;;;;;4995267;28;20529;-85
2021/07/18 00:10:59;;;;;;;25.17;15.70;;;24.00;54.10;;;;;;4995892;28;20543;-85
2021/07/18 00:13:26;;;;;;;31.03;15.90;;;24.00;54.20;;;;;;4996433;28;20447;-86
2021/07/18 00:15:53;;;;;;;29.87;15.87;;;23.90;54.10;;;;;;4996279;28;20514;-86
2021/07/18 00:18:20;;;;;;;35.43;16.07;;;23.90;53.90;;;;;;4996941;28;20569;-85
2021/07/18 00:20:49;;;;;;;26.40;14.50;;;23.70;55.00;;;;;;4996425;28;20466;-85
2021/07/18 00:23:17;;;;;;;29.90;17.03;;;23.80;54.30;;;;;;4988300;28;20463;-85
2021/07/18 00:25:44;;;;;;;33.40;15.80;;;23.70;54.60;;;;;;4998459;28;20481;-85
2021/07/18 00:28:12;;;;;;;19.90;13.80;;;23.80;54.50;;;;;;4998084;28;20470;-85
2021/07/18 00:30:39;;;;;;;27.83;15.30;;;23.80;53.40;;;;;;4996360;28;20849;-85
2021/07/18 00:33:06;;;;;;;22.90;15.10;;;23.70;54.20;;;;;;4998381;28;20451;-85
2021/07/18 00:35:34;;;;;;;28.83;15.37;;;23.40;54.80;;;;;;4999611;28;20498;-85
2021/07/18 00:38:01;;;;;;;24.20;14.20;;;23.60;54.60;;;;;;4999683;28;20489;-85
2021/07/18 00:40:29;;;;;;;28.00;15.10;;;23.50;54.30;;;;;;5007414;28;20791;-85
2021/07/18 00:42:55;;;;;;;27.93;15.80;;;23.60;54.30;;;;;;5003813;28;20476;-85
2021/07/18 00:45:24;;;;;;;21.73;13.90;;;23.60;54.10;;;;;;5014675;28;20423;-85
2021/07/18 00:47:51;;;;;;;32.13;15.73;;;23.50;54.10;;;;;;5016418;28;20510;-85
2021/07/18 00:50:18;;;;;;;22.80;13.80;;;23.60;53.60;;;;;;5017293;28;20466;-85
2021/07/18 00:52:45;;;;;;;25.60;16.00;;;23.70;53.30;;;;;;5012374;28;20474;-84
2021/07/18 00:55:13;;;;;;;25.23;13.80;;;23.50;54.10;;;;;;5000292;28;20482;-85
2021/07/18 00:57:45;;;;;;;29.00;14.60;;;23.40;54.00;;;;;;4998229;28;20502;-85
2021/07/18 01:00:13;;;;;;;36.47;14.80;;;23.30;54.30;;;;;;5002590;28;20574;-85
2021/07/18 01:02:42;;;;;;;27.07;14.90;;;23.20;54.20;;;;;;5015647;28;20446;-86
2021/07/18 01:05:11;;;;;;;26.33;13.80;;;23.20;54.20;;;;;;5009520;28;20443;-85
2021/07/18 01:07:38;;;;;;;26.60;13.40;;;23.10;54.20;;;;;;5000018;28;20599;-85
2021/07/18 01:10:06;;;;;;;21.73;13.90;;;23.10;54.10;;;;;;4999207;28;20470;-86
2021/07/18 01:12:33;;;;;;;28.20;14.40;;;23.10;54.00;;;;;;5007140;28;20498;-86
2021/07/18 01:15:01;;;;;;;26.80;14.27;;;23.10;54.80;;;;;;5016564;28;20487;-86
2021/07/18 01:17:29;;;;;;;22.87;13.47;;;22.90;53.80;;;;;;5017201;28;20499;-86
2021/07/18 01:19:57;;;;;;;25.37;14.70;;;22.80;53.80;;;;;;5004071;28;20547;-86
2021/07/18 01:22:26;;;;;;;24.83;13.90;;;22.50;55.20;;;;;;5004561;28;20447;-86
2021/07/18 01:24:53;;;;;;;38.83;14.10;;;22.70;54.80;;;;;;5017250;28;20443;-86
2021/07/18 01:27:21;;;;;;;29.13;13.63;;;22.70;54.10;;;;;;5017839;28;20490;-86
2021/07/18 01:29:47;;;;;;;27.70;13.60;;;22.70;54.10;;;;;;5016434;28;20498;-85
2021/07/18 01:32:15;;;;;;;19.40;13.10;;;22.70;54.10;;;;;;5007653;28;20956;-85
2021/07/18 01:34:41;;;;;;;25.73;13.43;;;22.50;53.90;;;;;;4999189;28;20467;-85
2021/07/18 01:37:08;;;;;;;24.40;13.00;;;22.30;54.40;;;;;;4997624;28;20482;-85
2021/07/18 01:39:37;;;;;;;25.13;13.23;;;22.40;54.30;;;;;;4997537;28;20573;-85
2021/07/18 01:42:04;;;;;;;25.43;12.97;;;22.40;54.00;;;;;;4994582;28;20864;-85
2021/07/18 01:44:31;;;;;;;25.60;13.87;;;22.40;54.20;;;;;;4994097;28;20530;-85
2021/07/18 01:46:59;;;;;;;29.50;12.60;;;22.10;54.20;;;;;;4995533;28;20501;-85
2021/07/18 01:49:26;;;;;;;28.23;12.47;;;22.30;54.10;;;;;;4995719;28;20514;-85
2021/07/18 01:51:53;;;;;;;27.97;13.17;;;22.40;53.80;;;;;;4998895;28;20493;-85
2021/07/18 01:54:20;;;;;;;22.73;11.93;;;22.30;53.80;;;;;;5000480;28;20505;-85
2021/07/18 01:56:48;;;;;;;37.67;12.87;;;22.40;53.80;;;;;;4999847;28;20517;-86
2021/07/18 01:59:15;;;;;;;21.87;12.70;;;22.50;53.40;;;;;;5000734;28;20507;-85
2021/07/18 02:01:43;;;;;;;20.90;12.40;;;22.70;53.10;;;;;;4992245;28;20450;-85
2021/07/18 02:04:12;;;;;;;30.07;13.03;;;22.50;53.80;;;;;;5003132;28;20453;-85
2021/07/18 02:06:39;;;;;;;23.20;12.30;;;22.50;53.10;;;;;;5002349;28;20462;-85
2021/07/18 02:09:07;;;;;;;21.43;12.53;;;22.60;53.00;;;;;;5002488;28;20525;-85
2021/07/18 02:11:33;;;;;;;15.03;12.03;;;22.60;52.80;;;;;;4998048;28;20593;-85
2021/07/18 02:14:02;;;;;;;20.13;12.73;;;22.60;53.30;;;;;;4999578;28;20447;-85
2021/07/18 02:16:30;;;;;;;27.17;13.70;;;22.30;53.20;;;;;;4999151;28;20506;-85
2021/07/18 02:19:05;;;;;;;20.10;12.20;;;22.20;53.70;;;;;;4997785;28;20570;-85
2021/07/18 02:21:32;;;;;;;21.93;12.83;;;22.20;53.70;;;;;;4997379;28;20475;-85
2021/07/18 02:23:59;;;;;;;20.17;12.87;;;22.20;53.70;;;;;;4997681;28;20482;-85
2021/07/18 02:26:28;;;;;;;15.50;11.10;;;22.30;53.80;;;;;;4997947;28;20995;-85
2021/07/18 02:28:56;;;;;;;21.50;12.50;;;22.50;53.60;;;;;;4997478;28;20975;-85
2021/07/18 02:31:25;;;;;;;17.27;11.43;;;22.40;52.90;;;;;;4997157;28;20843;-85
2021/07/18 02:33:51;;;;;;;17.80;11.13;;;22.50;53.80;;;;;;4987629;28;22381;-85
2021/07/18 02:36:18;;;;;;;18.90;10.67;;;22.60;53.40;;;;;;4997195;28;20538;-85
2021/07/18 02:38:45;;;;;;;25.80;11.70;;;22.70;52.30;;;;;;4997512;28;20524;-85
2021/07/18 02:41:13;;;;;;;19.80;11.43;;;22.60;52.20;;;;;;4996620;28;20494;-85
2021/07/18 02:43:40;;;;;;;18.00;11.80;;;22.50;53.00;;;;;;4997837;28;20523;-85
2021/07/18 02:46:07;;;;;;;26.93;11.70;;;22.50;53.50;;;;;;4996124;28;20487;-85
2021/07/18 02:48:35;;;;;;;19.00;12.20;;;22.50;52.30;;;;;;4996796;28;21004;-85
2021/07/18 02:51:02;;;;;;;16.50;10.80;;;22.60;52.60;;;;;;4997208;28;20494;-85
2021/07/18 02:53:29;;;;;;;16.90;10.83;;;22.30;52.30;;;;;;5000680;28;20526;-85
2021/07/18 02:55:56;;;;;;;16.70;11.63;;;22.30;53.30;;;;;;5005370;28;20550;-85
2021/07/18 02:58:23;;;;;;;18.53;11.70;;;22.20;53.30;;;;;;4997166;28;20439;-85
2021/07/18 03:00:51;;;;;;;17.27;11.07;;;22.30;53.80;;;;;;4995471;28;20488;-85
2021/07/18 03:03:18;;;;;;;19.53;11.90;;;22.50;53.70;;;;;;4996916;28;20454;-85
2021/07/18 03:05:46;;;;;;;19.27;11.40;;;22.60;53.20;;;;;;4995824;28;20487;-85
2021/07/18 03:08:13;;;;;;;20.57;10.90;;;22.60;53.10;;;;;;4997070;28;20474;-85
2021/07/18 03:10:40;;;;;;;18.40;10.07;;;22.60;53.20;;;;;;4996479;28;20919;-85
2021/07/18 03:13:07;;;;;;;18.63;12.90;;;22.40;52.00;;;;;;4996947;28;20529;-85
2021/07/18 03:15:34;;;;;;;15.17;10.40;;;22.40;53.30;;;;;;4996164;28;20553;-85
2021/07/18 03:18:02;;;;;;;15.27;10.60;;;22.40;53.30;;;;;;4996387;28;20823;-85
2021/07/18 03:20:29;;;;;;;19.20;10.63;;;22.50;53.50;;;;;;4996637;28;20486;-85
2021/07/18 03:22:58;;;;;;;19.30;10.10;;;22.60;52.20;;;;;;4996323;28;20857;-85
2021/07/18 03:25:24;;;;;;;18.60;10.67;;;22.60;52.60;;;;;;4996470;28;20526;-86
2021/07/18 03:27:51;;;;;;;13.43;10.73;;;22.50;51.10;;;;;;4996341;28;20873;-86
2021/07/18 03:30:22;;;;;;;13.73;10.10;;;22.20;52.70;;;;;;4996375;28;20451;-86
2021/07/18 03:32:50;;;;;;;23.80;11.83;;;22.10;53.60;;;;;;4994663;28;20515;-86
2021/07/18 03:35:17;;;;;;;19.60;10.80;;;21.80;52.20;;;;;;4996139;28;20447;-86
2021/07/18 03:37:44;;;;;;;21.20;11.60;;;21.50;53.00;;;;;;4996477;28;20862;-86
2021/07/18 03:40:15;;;;;;;26.03;12.07;;;21.30;52.90;;;;;;4996782;28;20558;-85
2021/07/18 03:42:43;;;;;;;33.73;14.03;;;21.00;54.10;;;;;;4996444;28;20858;-85
2021/07/18 03:45:12;;;;;;;30.33;13.07;;;20.90;54.00;;;;;;5000677;28;20454;-85
2021/07/18 03:47:39;;;;;;;18.00;11.37;;;20.70;54.70;;;;;;4999899;28;20467;-85
2021/07/18 03:50:07;;;;;;;20.77;11.53;;;20.90;55.60;;;;;;4995996;28;20825;-85
2021/07/18 03:52:34;;;;;;;15.63;10.07;;;21.10;55.30;;;;;;4996069;28;20570;-85
2021/07/18 03:55:01;;;;;;;24.07;9.17;;;21.30;53.20;;;;;;4996150;28;20603;-85
2021/07/18 03:57:29;;;;;;;19.70;11.87;;;21.30;54.80;;;;;;4995608;28;20561;-85
2021/07/18 03:59:56;;;;;;;15.40;10.73;;;21.70;54.40;;;;;;4995834;28;20567;-85
2021/07/18 04:02:23;;;;;;;14.90;10.40;;;22.00;54.60;;;;;;4994737;28;20490;-85
2021/07/18 04:04:50;;;;;;;20.30;10.27;;;22.30;53.80;;;;;;4996001;28;20482;-85
2021/07/18 04:07:17;;;;;;;20.33;9.10;;;22.30;53.80;;;;;;4995818;28;20902;-86
2021/07/18 04:09:44;;;;;;;14.77;9.50;;;22.60;52.50;;;;;;4994885;28;20462;-86
2021/07/18 04:12:11;;;;;;;15.20;9.00;;;22.70;52.80;;;;;;4995520;28;20451;-86
2021/07/18 04:14:40;;;;;;;35.77;8.23;;;22.70;50.40;;;;;;4995148;28;20509;-86
2021/07/18 04:17:07;;;;;;;13.50;9.00;;;22.50;50.50;;;;;;4994507;28;20541;-86
2021/07/18 04:19:34;;;;;;;12.17;8.30;;;22.40;52.00;;;;;;4994139;28;21099;-86
2021/07/18 04:22:01;;;;;;;13.97;7.67;;;22.30;51.40;;;;;;4995031;28;20573;-86
2021/07/18 04:24:27;;;;;;;11.87;8.00;;;22.20;51.30;;;;;;4994909;28;20940;-86
2021/07/18 04:26:55;;;;;;;17.80;8.97;;;22.20;52.70;;;;;;4995296;28;20502;-86
2021/07/18 04:29:22;;;;;;;15.00;8.97;;;22.40;53.30;;;;;;4993716;28;20459;-86
2021/07/18 04:31:51;;;;;;;13.33;8.57;;;22.70;52.30;;;;;;4994734;28;20454;-86
2021/07/18 04:34:18;;;;;;;18.10;8.00;;;22.70;50.50;;;;;;4994506;28;21023;-86
2021/07/18 04:36:45;;;;;;;20.67;8.00;;;22.60;50.60;;;;;;4995100;28;20498;-86
2021/07/18 04:39:12;;;;;;;15.37;7.93;;;22.40;49.10;;;;;;4994413;28;20498;-86
2021/07/18 04:41:39;;;;;;;14.90;7.90;;;22.40;49.40;;;;;;4994528;28;20850;-86
2021/07/18 04:44:06;;;;;;;31.63;7.00;;;22.40;49.20;;;;;;4994956;28;20534;-86
2021/07/18 04:46:33;;;;;;;12.73;8.10;;;22.30;49.20;;;;;;4993264;28;20570;-86
2021/07/18 04:49:01;;;;;;;13.43;7.00;;;22.30;49.00;;;;;;4993915;28;20494;-86
2021/07/18 04:51:28;;;;;;;16.30;7.87;;;22.30;49.80;;;;;;4994652;28;20550;-86
2021/07/18 04:53:55;;;;;;;10.30;7.80;;;22.30;49.70;;;;;;4994454;28;20463;-86
2021/07/18 04:56:22;;;;;;;13.87;7.50;;;22.30;49.40;;;;;;4994393;28;20566;-86
2021/07/18 04:58:49;;;;;;;15.43;7.40;;;22.10;49.80;;;;;;4993500;28;20498;-86
2021/07/18 05:01:16;;;;;;;10.50;6.83;;;22.00;50.20;;;;;;4994952;28;20565;-85
2021/07/18 05:03:43;;;;;;;15.20;6.07;;;22.00;50.10;;;;;;4993898;28;20804;-85
2021/07/18 05:06:11;;;;;;;11.33;7.10;;;22.20;49.00;;;;;;4993967;28;20507;-85
2021/07/18 05:08:38;;;;;;;11.07;6.63;;;22.30;48.50;;;;;;4994347;28;20530;-86
2021/07/18 05:11:05;;;;;;;16.63;7.13;;;22.50;49.00;;;;;;4993685;28;20530;-85
2021/07/18 05:13:32;;;;;;;19.20;6.47;;;22.50;49.00;;;;;;4993430;28;20549;-86
2021/07/18 05:15:59;;;;;;;17.50;8.70;;;22.50;47.90;;;;;;4993925;28;20499;-86
2021/07/18 05:18:26;;;;;;;11.10;6.03;;;22.60;48.40;;;;;;4994067;28;20559;-86
2021/07/18 05:20:53;;;;;;;11.87;5.43;;;22.60;48.30;;;;;;4994084;28;20570;-86
2021/07/18 05:23:21;;;;;;;13.93;6.30;;;22.90;47.20;;;;;;4996043;28;20898;-85
2021/07/18 05:25:48;;;;;;;11.97;6.00;;;23.00;47.50;;;;;;5000666;28;20459;-86
2021/07/18 05:28:15;;;;;;;11.57;6.30;;;23.10;47.30;;;;;;5003420;28;20550;-86
2021/07/18 05:30:42;;;;;;;8.33;5.30;;;23.10;48.30;;;;;;5002947;28;20810;-86
2021/07/18 05:33:09;;;;;;;11.00;5.40;;;23.30;46.80;;;;;;5002505;28;20541;-85
2021/07/18 05:35:36;;;;;;;12.17;5.70;;;23.20;46.30;;;;;;5001420;28;20461;-85
2021/07/18 05:38:03;;;;;;;9.90;6.33;;;23.50;47.70;;;;;;5001052;28;20541;-86
2021/07/18 05:40:32;;;;;;;11.83;5.93;;;23.80;47.30;;;;;;5001620;28;20569;-86
2021/07/18 05:42:59;;;;;;;10.93;6.07;;;24.00;48.20;;;;;;4999614;28;20578;-85
2021/07/18 05:45:25;;;;;;;8.93;5.30;;;24.20;47.80;;;;;;5000284;28;20541;-85
2021/07/18 05:47:52;;;;;;;8.77;4.87;;;25.70;47.40;;;;;;5001167;28;20455;-85
2021/07/18 05:50:19;;;;;;;12.57;5.10;;;27.60;43.60;;;;;;5001048;28;20450;-85
2021/07/18 05:52:46;;;;;;;11.50;4.87;;;28.90;41.00;;;;;;5006373;28;20509;-87
2021/07/18 05:55:14;;;;;;;6.47;4.40;;;29.70;38.60;;;;;;5005313;28;20446;-86
2021/07/18 05:57:42;;;;;;;7.30;4.17;;;31.00;36.00;;;;;;5004957;28;20517;-87
2021/07/18 06:00:12;;;;;;;8.70;3.93;;;31.40;34.40;;;;;;5004162;28;20569;-86
2021/07/18 06:02:39;;;;;;;15.00;4.50;;;31.90;32.30;;;;;;5006580;28;20493;-86
2021/07/18 06:05:08;;;;;;;12.63;4.50;;;32.40;30.00;;;;;;5005980;28;20804;-87
2021/07/18 06:07:35;;;;;;;10.30;4.77;;;32.50;31.90;;;;;;5007626;28;20467;-86
2021/07/18 06:10:02;;;;;;;8.40;4.57;;;33.20;29.90;;;;;;5005050;28;20454;-86
2021/07/18 06:12:29;;;;;;;4.57;3.30;;;33.70;29.10;;;;;;5007492;28;20478;-86
2021/07/18 06:14:58;;;;;;;10.07;3.90;;;33.90;27.90;;;;;;5005807;28;20534;-85
2021/07/18 06:17:25;;;;;;;6.37;3.70;;;33.40;28.10;;;;;;5004974;28;20502;-86
2021/07/18 06:19:52;;;;;;;8.13;3.77;;;33.40;27.60;;;;;;5006045;28;20518;-86
2021/07/18 06:22:19;;;;;;;11.87;5.07;;;33.50;28.60;;;;;;5008262;28;20855;-86
2021/07/18 06:24:46;;;;;;;7.17;3.60;;;34.20;27.70;;;;;;5006736;28;20513;-85
2021/07/18 06:27:13;;;;;;;9.13;3.50;;;34.90;25.60;;;;;;5004580;28;20488;-86
2021/07/18 06:29:40;;;;;;;8.20;3.70;;;34.00;25.70;;;;;;5021731;28;20453;-86
2021/07/18 06:32:09;;;;;;;3.90;3.60;;;34.30;26.10;;;;;;5023907;28;20430;-86
2021/07/18 06:34:36;;;;;;;10.30;3.93;;;34.90;25.70;;;;;;5020346;28;20470;-85
2021/07/18 06:37:03;;;;;;;10.57;4.40;;;35.20;25.80;;;;;;5004019;28;20506;-85
2021/07/18 06:39:30;;;;;;;10.97;4.13;;;35.50;25.40;;;;;;5016377;28;20474;-85
2021/07/18 06:41:57;;;;;;;10.73;4.07;;;35.50;25.00;;;;;;5020579;28;20469;-86
2021/07/18 06:44:24;;;;;;;9.50;3.63;;;35.50;24.60;;;;;;5020909;28;20454;-86
2021/07/18 06:46:51;;;;;;;11.07;4.17;;;35.80;24.30;;;;;;5017913;28;20987;-86
2021/07/18 06:49:19;;;;;;;8.73;3.53;;;36.20;24.60;;;;;;4997602;28;20451;-86
2021/07/18 06:51:46;;;;;;;9.50;3.60;;;35.90;23.70;;;;;;4997666;28;20497;-86
2021/07/18 06:54:13;;;;;;;8.33;3.80;;;37.10;23.40;;;;;;5000675;28;20462;-86
2021/07/18 06:56:40;;;;;;;6.00;3.40;;;36.60;23.40;;;;;;4999640;28;20559;-86
2021/07/18 06:59:07;;;;;;;8.60;4.13;;;36.30;23.60;;;;;;4997754;28;20497;-86
2021/07/18 07:01:34;;;;;;;5.53;3.80;;;35.80;23.90;;;;;;4996793;28;20521;-87
2021/07/18 07:04:01;;;;;;;4.67;3.17;;;35.60;23.70;;;;;;4997636;28;20514;-86
2021/07/18 07:06:29;;;;;;;5.93;3.03;;;35.60;23.10;;;;;;4996335;28;20489;-86
2021/07/18 07:08:56;;;;;;;8.50;3.80;;;35.90;23.30;;;;;;4996558;28;20537;-86
2021/07/18 07:11:23;;;;;;;6.87;3.23;;;36.10;22.20;;;;;;4995665;28;21036;-86
2021/07/18 07:13:51;;;;;;;10.03;3.30;;;34.90;23.90;;;;;;4996802;28;20447;-86
2021/07/18 07:16:18;;;;;;;8.37;3.40;;;35.50;23.10;;;;;;4997765;28;20474;-85
2021/07/18 07:18:45;;;;;;;8.13;3.60;;;34.70;23.40;;;;;;4996908;28;20447;-85
2021/07/18 07:21:13;;;;;;;5.70;2.60;;;33.70;24.80;;;;;;4997438;28;20487;-85
2021/07/18 07:23:42;;;;;;;6.20;2.83;;;33.60;24.40;;;;;;4997029;28;20791;-85
2021/07/18 07:26:09;;;;;;;11.40;3.33;;;34.20;24.80;;;;;;4990292;28;21004;-86
2021/07/18 07:28:36;;;;;;;5.83;2.77;;;34.70;24.20;;;;;;4995241;28;20463;-85
2021/07/18 07:31:03;;;;;;;4.30;3.00;;;35.80;22.50;;;;;;4996165;28;20530;-86
2021/07/18 07:33:33;;;;;;;15.67;3.57;;;36.00;22.40;;;;;;4996226;28;20526;-86
2021/07/18 07:36:00;;;;;;;6.27;3.20;;;36.00;22.20;;;;;;4995857;28;20483;-86
2021/07/18 07:38:27;;;;;;;5.77;2.93;;;35.80;21.60;;;;;;4994581;28;20501;-86
2021/07/18 07:40:55;;;;;;;7.47;3.47;;;35.30;23.00;;;;;;4996267;28;21007;-86
2021/07/18 07:43:22;;;;;;;5.70;3.07;;;35.40;23.00;;;;;;4995648;28;20469;-85
2021/07/18 07:45:49;;;;;;;10.00;3.30;;;35.40;22.40;;;;;;4995655;28;20466;-85
2021/07/18 07:48:16;;;;;;;12.63;3.13;;;35.80;22.30;;;;;;4995640;28;20448;-85
2021/07/18 07:50:43;;;;;;;8.50;3.20;;;36.20;21.70;;;;;;4995738;28;20482;-86
2021/07/18 07:53:10;;;;;;;9.80;3.30;;;35.80;22.10;;;;;;4994434;28;20985;-85
2021/07/18 07:55:37;;;;;;;8.00;3.60;;;36.50;21.50;;;;;;4995603;28;20552;-86
2021/07/18 07:58:07;;;;;;;5.23;2.90;;;35.40;21.90;;;;;;4994765;28;20473;-85
2021/07/18 08:00:34;;;;;;;7.63;2.80;;;35.60;22.10;;;;;;4995641;28;20482;-86
2021/07/18 08:03:01;;;;;;;10.40;2.73;;;35.50;22.40;;;;;;4994198;28;20550;-85
2021/07/18 08:05:28;;;;;;;5.63;3.03;;;34.50;23.10;;;;;;4993895;28;20459;-85
2021/07/18 08:07:55;;;;;;;8.20;3.40;;;33.40;24.00;;;;;;4994702;28;20522;-86
2021/07/18 08:10:23;;;;;;;7.10;3.33;;;32.90;25.50;;;;;;4992748;28;20555;-85
2021/07/18 08:12:51;;;;;;;21.13;4.03;;;33.30;24.70;;;;;;4994162;28;20894;-85
2021/07/18 08:15:23;;;;;;;17.00;2.83;;;34.00;24.40;;;;;;4994265;28;21016;-85
2021/07/18 08:17:51;;;;;;;16.40;3.93;;;34.00;24.00;;;;;;4993826;28;20469;-85
2021/07/18 08:20:19;;;;;;;6.43;2.80;;;34.00;23.80;;;;;;4994315;28;20538;-85
2021/07/18 08:22:47;;;;;;;8.17;2.87;;;34.40;23.50;;;;;;4993781;28;20451;-85
2021/07/18 08:25:15;;;;;;;8.10;2.83;;;34.30;23.10;;;;;;4993732;28;20470;-85
2021/07/18 08:27:42;;;;;;;6.50;3.13;;;33.50;25.30;;;;;;4993363;28;20570;-85
2021/07/18 08:30:10;;;;;;;12.10;3.40;;;33.70;24.30;;;;;;4992459;28;20548;-85
2021/07/18 08:32:39;;;;;;;7.27;3.07;;;34.00;23.90;;;;;;4994354;28;20554;-85
2021/07/18 08:35:08;;;;;;;7.70;3.60;;;32.70;24.90;;;;;;4994658;28;20475;-86
2021/07/18 08:37:35;;;;;;;6.23;2.70;;;32.00;26.40;;;;;;4994822;28;20647;-86
2021/07/18 08:40:02;;;;;;;9.33;2.87;;;32.50;26.00;;;;;;4993422;28;20888;-86
2021/07/18 08:42:30;;;;;;;9.00;3.07;;;33.10;26.00;;;;;;4993627;28;20929;-85
2021/07/18 08:44:58;;;;;;;5.73;2.70;;;33.60;25.00;;;;;;4991042;28;20463;-85
2021/07/18 08:47:26;;;;;;;5.83;3.30;;;32.70;25.60;;;;;;4986981;28;20533;-86
2021/07/18 08:49:54;;;;;;;7.30;2.97;;;32.50;25.90;;;;;;4993183;28;20836;-86
2021/07/18 08:52:22;;;;;;;8.60;3.20;;;32.80;26.10;;;;;;4994173;28;20498;-86
2021/07/18 08:54:50;;;;;;;7.60;3.10;;;32.20;25.40;;;;;;4993224;28;20494;-86
2021/07/18 08:57:19;;;;;;;8.00;3.60;;;31.60;26.70;;;;;;4994410;28;20553;-85
2021/07/18 08:59:46;;;;;;;5.17;3.10;;;31.50;27.40;;;;;;4987890;28;20498;-85
2021/07/18 09:02:14;;;;;;;7.00;3.27;;;31.90;26.40;;;;;;4990707;28;20478;-86
2021/07/18 09:04:41;;;;;;;12.90;4.00;;;31.70;27.90;;;;;;4993399;28;20541;-85
2021/07/18 09:07:11;;;;;;;5.93;3.00;;;31.20;27.30;;;;;;4993750;28;20533;-87
2021/07/18 09:09:38;;;;;;;4.90;2.90;;;31.20;28.40;;;;;;4993845;28;20526;-85
2021/07/18 09:12:07;;;;;;;7.40;3.03;;;31.70;27.70;;;;;;4994209;28;20525;-85
2021/07/18 09:14:35;;;;;;;7.80;2.90;;;32.60;26.50;;;;;;4993382;28;20513;-85
2021/07/18 09:17:04;;;;;;;5.83;2.60;;;32.70;26.40;;;;;;4991940;28;21071;-85
2021/07/18 09:19:32;;;;;;;4.60;2.80;;;32.30;26.50;;;;;;4992010;28;20546;-85
2021/07/18 09:22:13;;;;;;;9.10;3.27;;;31.60;27.50;;;;;;4991839;28;20475;-85
2021/07/18 09:24:42;;;;;;;6.47;2.90;;;31.40;28.00;;;;;;4992947;28;20467;-84
2021/07/18 09:27:12;;;;;;;9.80;3.30;;;31.40;27.90;;;;;;4993010;28;20565;-84
2021/07/18 09:29:42;;;;;;;7.10;3.90;;;30.70;28.10;;;;;;4994331;28;20447;-84
2021/07/18 09:32:11;;;;;;;6.70;3.10;;;29.10;30.00;;;;;;4995317;28;20467;-84
2021/07/18 09:34:40;;;;;;;7.03;3.10;;;28.70;30.80;;;;;;4994484;28;20533;-84
2021/07/18 09:37:13;;;;;;;9.93;3.40;;;28.30;31.80;;;;;;4993207;28;20577;-85
2021/07/18 09:39:46;;;;;;;8.23;2.80;;;28.30;32.60;;;;;;4993974;28;20475;-85
2021/07/18 09:42:35;;;;;;;7.43;3.27;;;28.70;32.30;;;;;;4994439;28;20471;-85
2021/07/18 09:45:07;;;;;;;7.53;3.20;;;29.00;31.00;;;;;;4993994;28;20446;-85
2021/07/18 09:47:34;;;;;;;6.30;3.13;;;29.40;30.50;;;;;;4993451;28;20545;-85
2021/07/18 09:50:01;;;;;;;11.53;3.50;;;29.10;30.90;;;;;;4994270;28;20564;-85
2021/07/18 09:52:29;;;;;;;6.87;3.47;;;28.70;31.50;;;;;;4994856;28;20443;-85
2021/07/18 09:54:58;;;;;;;7.40;3.50;;;28.00;32.40;;;;;;5009346;28;20454;-84
2021/07/18 09:57:36;;;;;;;7.27;3.57;;;28.50;32.80;;;;;;5015878;28;20515;-84
2021/07/18 10:00:06;;;;;;;7.80;3.07;;;28.70;32.50;;;;;;5016034;28;20526;-84
2021/07/18 10:02:33;;;;;;;9.07;3.13;;;28.50;31.70;;;;;;5015754;28;20478;-84
2021/07/18 10:05:01;;;;;;;5.90;3.00;;;28.20;33.60;;;;;;5005870;28;20534;-84
2021/07/18 10:07:35;;;;;;;7.50;3.00;;;28.20;33.10;;;;;;4991528;28;20578;-85
2021/07/18 10:10:04;;;;;;;6.70;3.23;;;28.40;33.40;;;;;;4994106;28;20482;-84
2021/07/18 10:12:33;;;;;;;8.60;3.40;;;28.80;32.60;;;;;;4997650;28;20443;-85
2021/07/18 10:15:01;;;;;;;11.73;3.70;;;28.60;32.30;;;;;;4996919;28;20463;-84
2021/07/18 10:17:29;;;;;;;9.20;3.63;;;28.50;32.20;;;;;;4997151;28;20534;-84
2021/07/18 10:19:56;;;;;;;17.50;4.27;;;28.50;32.30;;;;;;4996937;28;20454;-85
2021/07/18 10:22:24;;;;;;;5.73;3.23;;;27.70;33.80;;;;;;4993713;28;20566;-85
2021/07/18 10:24:55;;;;;;;7.83;3.90;;;27.50;34.60;;;;;;4996871;28;20944;-84
2021/07/18 10:27:22;;;;;;;9.30;3.60;;;27.40;34.90;;;;;;5003222;28;20485;-84
2021/07/18 10:29:52;;;;;;;10.07;3.47;;;27.20;35.40;;;;;;5011147;28;20506;-84
2021/07/18 10:32:22;;;;;;;6.90;3.43;;;27.30;34.40;;;;;;4997515;28;20902;-84
2021/07/18 10:34:53;;;;;;;9.10;3.63;;;26.50;35.80;;;;;;4998884;28;20447;-84
2021/07/18 10:37:20;;;;;;;9.07;3.30;;;26.30;35.70;;;;;;4998694;28;20513;-83
2021/07/18 10:39:47;;;;;;;7.07;3.83;;;26.80;35.50;;;;;;4999169;28;20821;-84
2021/07/18 10:42:19;;;;;;;5.40;3.27;;;26.10;36.50;;;;;;4999311;28;20560;-84
2021/07/18 10:44:48;;;;;;;10.20;4.00;;;26.00;36.50;;;;;;4999172;28;20431;-84
2021/07/18 10:47:16;;;;;;;7.50;3.17;;;26.00;37.50;;;;;;4998303;28;20557;-84
2021/07/18 10:49:57;;;;;;;9.47;3.77;;;25.80;37.00;;;;;;4998960;28;20451;-83
2021/07/18 10:52:29;;;;;;;6.07;3.23;;;25.70;37.80;;;;;;4998221;28;20435;-83
2021/07/18 10:54:56;;;;;;;13.57;3.97;;;25.80;37.50;;;;;;4998632;28;20518;-84
2021/07/18 10:57:31;;;;;;;7.73;3.33;;;25.10;38.60;;;;;;4999774;28;20538;-83
2021/07/18 11:00:19;;;;;;;6.90;3.80;;;25.20;38.30;;;;;;4999925;28;21031;-84
2021/07/18 11:02:46;;;;;;;5.00;3.20;;;25.60;36.80;;;;;;4999817;28;20547;-83
2021/07/18 11:05:17;;;;;;;9.77;4.07;;;25.50;37.00;;;;;;4999700;28;20479;-83
2021/07/18 11:07:55;;;;;;;13.60;3.93;;;25.70;37.10;;;;;;5005529;28;20549;-83
2021/07/18 11:10:24;;;;;;;11.90;3.47;;;26.00;36.80;;;;;;5019944;28;20419;-83
2021/07/18 11:13:01;;;;;;;14.03;3.50;;;26.40;36.30;;;;;;5004095;28;20841;-83
2021/07/18 11:15:33;;;;;;;6.70;3.77;;;26.20;36.70;;;;;;5000705;28;20940;-83
2021/07/18 11:18:03;;;;;;;9.47;3.60;;;26.60;35.80;;;;;;5002229;28;20475;-83
2021/07/18 11:20:58;;;;;;;6.50;3.40;;;26.90;35.60;;;;;;5002039;28;20887;-83
2021/07/18 11:23:30;;;;;;;7.03;3.27;;;27.20;33.90;;;;;;5001788;28;20450;-82
2021/07/18 11:26:08;;;;;;;8.90;3.97;;;27.20;34.00;;;;;;5003376;28;20463;-83
2021/07/18 11:29:03;;;;;;;16.20;3.43;;;27.50;34.00;;;;;;5002355;28;20441;-84
2021/07/18 11:31:44;;;;;;;8.70;3.93;;;27.90;34.00;;;;;;5002440;28;20439;-84
2021/07/18 11:34:20;;;;;;;7.70;3.50;;;27.40;33.40;;;;;;5003446;28;20435;-83
2021/07/18 11:36:55;;;;;;;5.87;3.30;;;27.30;34.70;;;;;;5001872;28;20470;-83
2021/07/18 11:39:25;;;;;;;9.67;3.83;;;27.40;34.50;;;;;;5004296;28;20462;-84
2021/07/18 11:41:52;;;;;;;6.63;3.57;;;27.40;34.60;;;;;;5019932;28;20485;-85
2021/07/18 11:44:25;;;;;;;9.73;3.60;;;26.80;35.50;;;;;;5019881;28;20427;-85
2021/07/18 11:46:54;;;;;;;8.03;3.40;;;26.80;35.60;;;;;;5018639;28;20487;-84
2021/07/18 11:49:26;;;;;;;7.97;3.50;;;26.90;35.10;;;;;;5002662;28;20455;-84
2021/07/18 11:51:53;;;;;;;17.17;3.27;;;26.40;35.40;;;;;;5019894;28;20415;-85
2021/07/18 11:54:21;;;;;;;6.30;3.33;;;26.70;35.50;;;;;;5019947;28;20438;-85
2021/07/18 11:56:50;;;;;;;14.17;3.23;;;26.60;35.40;;;;;;5019718;28;20465;-85
2021/07/18 11:59:21;;;;;;;7.80;3.70;;;26.90;35.60;;;;;;5009367;28;20454;-85
2021/07/18 12:01:50;;;;;;;6.63;3.80;;;26.80;35.70;;;;;;4996244;28;20542;-85
2021/07/18 12:04:22;;;;;;;8.63;3.03;;;27.20;35.20;;;;;;4995629;28;20454;-85
2021/07/18 12:06:51;;;;;;;13.10;3.40;;;27.60;33.40;;;;;;4997262;28;20525;-84
2021/07/18 12:09:20;;;;;;;4.93;2.97;;;27.80;33.70;;;;;;4996116;28;20505;-84
2021/07/18 12:11:49;;;;;;;5.33;3.50;;;27.60;33.50;;;;;;4995859;28;20530;-84
2021/07/18 12:14:17;;;;;;;13.50;3.40;;;27.10;34.40;;;;;;4996153;28;20817;-84
2021/07/18 12:16:46;;;;;;;6.37;3.60;;;27.50;34.60;;;;;;4996575;28;20515;-84
2021/07/18 12:19:14;;;;;;;11.97;3.07;;;28.00;33.60;;;;;;4999188;28;20538;-84
2021/07/18 12:21:42;;;;;;;5.77;3.27;;;28.50;33.10;;;;;;5000305;28;20543;-84
2021/07/18 12:24:17;;;;;;;12.07;3.03;;;28.40;33.00;;;;;;5004780;28;20436;-84
2021/07/18 12:26:46;;;;;;;9.60;3.47;;;28.00;33.80;;;;;;5005455;28;20849;-84
2021/07/18 12:29:14;;;;;;;7.93;3.20;;;28.00;33.70;;;;;;5000320;28;20486;-84
2021/07/18 12:31:43;;;;;;;6.27;2.90;;;28.00;33.20;;;;;;5002552;28;20512;-85
2021/07/18 12:34:13;;;;;;;7.83;3.50;;;27.50;33.80;;;;;;4999590;28;20470;-85
2021/07/18 12:36:53;;;;;;;11.50;3.83;;;27.30;34.60;;;;;;4999664;28;20475;-85
2021/07/18 12:39:21;;;;;;;4.90;3.07;;;27.90;34.00;;;;;;4999088;28;20493;-85
2021/07/18 12:41:48;;;;;;;4.30;2.57;;;27.90;34.30;;;;;;5004487;28;20490;-85
2021/07/18 12:44:16;;;;;;;4.13;2.93;;;27.70;33.10;;;;;;4999494;28;20471;-84